sensor_id;sensor_type;location;lat;lon;timestamp;P1;durP1;ratioP1;P2;durP2;ratioP2
37517;SDS011;23366;52.498;13.446;2023-03-03T00:00:56;14.18;;;7.45;;
37517;SDS011;23366;52.498;13.446;2023-03-03T00:03:22;19.48;;;8.73;;
37517;SDS011;23366;52.498;13.446;2023-03-03T00:05:49;18.30;;;7.28;;
37517;SDS011;23366;52.498;13.446;2023-03-03T00:08:16;19.40;;;9.23;;
37517;SDS011;23366;52.498;13.446;2023-03-03T00:10:42;14.48;;;7.97;;
37517;SDS011;23366;52.498;13.446;2023-03-03T00:13:15;18.30;;;9.90;;
37517;SDS011;23366;52.498;13.446;2023-03-03T00:15:43;17.15;;;7.72;;
37517;SDS011;23366;52.498;13.446;2023-03-03T00:18:12;17.08;;;8.88;;
37517;SDS011;23366;52.498;13.446;2023-03-03T00:20:58;22.77;;;8.40;;
37517;SDS011;23366;52.498;13.446;2023-03-03T00:25:54;25.25;;;9.32;;
37517;SDS011;23366;52.498;13.446;2023-03-03T00:28:40;20.05;;;8.35;;
37517;SDS011;23366;52.498;13.446;2023-03-03T00:31:18;23.58;;;7.55;;
37517;SDS011;23366;52.498;13.446;2023-03-03T00:33:48;16.17;;;7.53;;
37517;SDS011;23366;52.498;13.446;2023-03-03T00:36:24;20.65;;;8.13;;
37517;SDS011;23366;52.498;13.446;2023-03-03T00:39:42;21.85;;;9.35;;
37517;SDS011;23366;52.498;13.446;2023-03-03T00:41:51;16.25;;;7.93;;
37517;SDS011;23366;52.498;13.446;2023-03-03T00:52:35;19.40;;;8.55;;
37517;SDS011;23366;52.498;13.446;2023-03-03T00:55:02;18.00;;;8.73;;
37517;SDS011;23366;52.498;13.446;2023-03-03T00:57:28;17.67;;;7.50;;
37517;SDS011;23366;52.498;13.446;2023-03-03T00:59:54;18.08;;;8.30;;
37517;SDS011;23366;52.498;13.446;2023-03-03T01:02:20;15.95;;;7.45;;
37517;SDS011;23366;52.498;13.446;2023-03-03T01:04:48;18.30;;;7.80;;
37517;SDS011;23366;52.498;13.446;2023-03-03T01:07:15;17.33;;;8.13;;
37517;SDS011;23366;52.498;13.446;2023-03-03T01:09:41;18.10;;;8.40;;
37517;SDS011;23366;52.498;13.446;2023-03-03T01:12:07;24.08;;;7.55;;
37517;SDS011;23366;52.498;13.446;2023-03-03T01:14:33;15.38;;;7.53;;
37517;SDS011;23366;52.498;13.446;2023-03-03T01:16:59;16.63;;;7.70;;
37517;SDS011;23366;52.498;13.446;2023-03-03T01:19:24;15.95;;;7.85;;
37517;SDS011;23366;52.498;13.446;2023-03-03T01:21:50;19.77;;;9.32;;
37517;SDS011;23366;52.498;13.446;2023-03-03T01:24:15;17.08;;;8.27;;
37517;SDS011;23366;52.498;13.446;2023-03-03T01:26:41;21.77;;;10.18;;
37517;SDS011;23366;52.498;13.446;2023-03-03T01:29:07;20.92;;;8.75;;
37517;SDS011;23366;52.498;13.446;2023-03-03T01:31:33;14.30;;;8.07;;
37517;SDS011;23366;52.498;13.446;2023-03-03T01:33:58;23.20;;;9.32;;
37517;SDS011;23366;52.498;13.446;2023-03-03T01:36:25;15.40;;;8.18;;
37517;SDS011;23366;52.498;13.446;2023-03-03T01:38:51;15.20;;;8.20;;
37517;SDS011;23366;52.498;13.446;2023-03-03T01:41:17;19.48;;;8.65;;
37517;SDS011;23366;52.498;13.446;2023-03-03T01:43:46;18.58;;;9.43;;
37517;SDS011;23366;52.498;13.446;2023-03-03T01:49:05;21.48;;;10.48;;
37517;SDS011;23366;52.498;13.446;2023-03-03T01:51:58;22.45;;;11.80;;
37517;SDS011;23366;52.498;13.446;2023-03-03T01:54:41;19.17;;;9.35;;
37517;SDS011;23366;52.498;13.446;2023-03-03T01:57:13;19.92;;;9.00;;
37517;SDS011;23366;52.498;13.446;2023-03-03T02:02:11;20.67;;;8.55;;
37517;SDS011;23366;52.498;13.446;2023-03-03T02:04:37;20.55;;;9.98;;
37517;SDS011;23366;52.498;13.446;2023-03-03T02:07:07;18.85;;;8.77;;
37517;SDS011;23366;52.498;13.446;2023-03-03T02:13:10;19.05;;;8.85;;
37517;SDS011;23366;52.498;13.446;2023-03-03T02:15:21;19.25;;;9.25;;
37517;SDS011;23366;52.498;13.446;2023-03-03T02:17:56;14.52;;;8.35;;
37517;SDS011;23366;52.498;13.446;2023-03-03T02:20:31;22.15;;;9.40;;
37517;SDS011;23366;52.498;13.446;2023-03-03T02:28:29;18.67;;;8.73;;
37517;SDS011;23366;52.498;13.446;2023-03-03T02:30:57;19.38;;;10.07;;
37517;SDS011;23366;52.498;13.446;2023-03-03T02:33:23;20.67;;;9.02;;
37517;SDS011;23366;52.498;13.446;2023-03-03T02:35:51;21.50;;;8.63;;
37517;SDS011;23366;52.498;13.446;2023-03-03T02:40:58;22.02;;;10.27;;
37517;SDS011;23366;52.498;13.446;2023-03-03T02:43:57;22.35;;;10.75;;
37517;SDS011;23366;52.498;13.446;2023-03-03T02:46:31;19.70;;;9.98;;
37517;SDS011;23366;52.498;13.446;2023-03-03T02:48:58;27.25;;;12.35;;
37517;SDS011;23366;52.498;13.446;2023-03-03T02:51:24;23.13;;;12.32;;
37517;SDS011;23366;52.498;13.446;2023-03-03T02:53:49;33.53;;;12.82;;
37517;SDS011;23366;52.498;13.446;2023-03-03T02:56:17;29.50;;;11.48;;
37517;SDS011;23366;52.498;13.446;2023-03-03T02:58:43;29.90;;;11.55;;
37517;SDS011;23366;52.498;13.446;2023-03-03T03:01:08;33.15;;;13.77;;
37517;SDS011;23366;52.498;13.446;2023-03-03T03:03:34;35.17;;;12.98;;
37517;SDS011;23366;52.498;13.446;2023-03-03T03:08:56;25.35;;;11.73;;
37517;SDS011;23366;52.498;13.446;2023-03-03T03:11:22;30.65;;;14.05;;
37517;SDS011;23366;52.498;13.446;2023-03-03T03:13:48;38.35;;;13.00;;
37517;SDS011;23366;52.498;13.446;2023-03-03T03:16:13;21.80;;;11.77;;
37517;SDS011;23366;52.498;13.446;2023-03-03T03:18:39;19.67;;;10.75;;
37517;SDS011;23366;52.498;13.446;2023-03-03T03:21:05;26.90;;;11.55;;
37517;SDS011;23366;52.498;13.446;2023-03-03T03:23:33;23.67;;;12.32;;
37517;SDS011;23366;52.498;13.446;2023-03-03T03:25:59;27.17;;;12.00;;
37517;SDS011;23366;52.498;13.446;2023-03-03T03:28:24;31.75;;;12.80;;
37517;SDS011;23366;52.498;13.446;2023-03-03T03:30:50;31.35;;;14.65;;
37517;SDS011;23366;52.498;13.446;2023-03-03T03:33:16;20.48;;;10.38;;
37517;SDS011;23366;52.498;13.446;2023-03-03T03:35:41;22.95;;;10.75;;
37517;SDS011;23366;52.498;13.446;2023-03-03T03:38:09;25.85;;;11.60;;
37517;SDS011;23366;52.498;13.446;2023-03-03T03:40:35;22.98;;;11.00;;
37517;SDS011;23366;52.498;13.446;2023-03-03T03:43:01;20.10;;;10.02;;
37517;SDS011;23366;52.498;13.446;2023-03-03T03:45:26;21.60;;;9.82;;
37517;SDS011;23366;52.498;13.446;2023-03-03T03:47:52;20.63;;;8.90;;
37517;SDS011;23366;52.498;13.446;2023-03-03T03:50:17;21.65;;;10.35;;
37517;SDS011;23366;52.498;13.446;2023-03-03T03:52:43;20.92;;;9.85;;
37517;SDS011;23366;52.498;13.446;2023-03-03T03:55:09;22.45;;;9.85;;
37517;SDS011;23366;52.498;13.446;2023-03-03T03:57:46;21.63;;;8.35;;
37517;SDS011;23366;52.498;13.446;2023-03-03T04:00:12;19.08;;;8.93;;
37517;SDS011;23366;52.498;13.446;2023-03-03T04:02:38;18.77;;;8.63;;
37517;SDS011;23366;52.498;13.446;2023-03-03T04:05:03;18.45;;;9.32;;
37517;SDS011;23366;52.498;13.446;2023-03-03T04:07:29;19.13;;;8.50;;
37517;SDS011;23366;52.498;13.446;2023-03-03T04:09:55;22.27;;;9.82;;
37517;SDS011;23366;52.498;13.446;2023-03-03T04:12:20;27.20;;;10.27;;
37517;SDS011;23366;52.498;13.446;2023-03-03T04:14:46;24.00;;;10.38;;
37517;SDS011;23366;52.498;13.446;2023-03-03T04:17:18;22.08;;;9.15;;
37517;SDS011;23366;52.498;13.446;2023-03-03T04:19:45;20.83;;;8.57;;
37517;SDS011;23366;52.498;13.446;2023-03-03T04:22:11;17.90;;;9.48;;
37517;SDS011;23366;52.498;13.446;2023-03-03T04:24:37;18.02;;;8.90;;
37517;SDS011;23366;52.498;13.446;2023-03-03T04:27:03;29.55;;;10.20;;
37517;SDS011;23366;52.498;13.446;2023-03-03T04:29:29;26.75;;;11.30;;
37517;SDS011;23366;52.498;13.446;2023-03-03T04:31:55;25.95;;;12.07;;
37517;SDS011;23366;52.498;13.446;2023-03-03T04:34:20;18.67;;;8.98;;
37517;SDS011;23366;52.498;13.446;2023-03-03T04:36:47;26.40;;;11.27;;
37517;SDS011;23366;52.498;13.446;2023-03-03T04:39:12;17.15;;;8.55;;
37517;SDS011;23366;52.498;13.446;2023-03-03T04:41:38;26.63;;;11.20;;
37517;SDS011;23366;52.498;13.446;2023-03-03T04:44:03;22.90;;;10.60;;
37517;SDS011;23366;52.498;13.446;2023-03-03T04:46:29;22.55;;;10.52;;
37517;SDS011;23366;52.498;13.446;2023-03-03T04:48:55;20.80;;;9.25;;
37517;SDS011;23366;52.498;13.446;2023-03-03T04:51:21;24.58;;;11.10;;
37517;SDS011;23366;52.498;13.446;2023-03-03T04:53:47;19.85;;;9.68;;
37517;SDS011;23366;52.498;13.446;2023-03-03T04:56:15;25.70;;;11.68;;
37517;SDS011;23366;52.498;13.446;2023-03-03T04:58:41;23.15;;;9.18;;
37517;SDS011;23366;52.498;13.446;2023-03-03T05:01:09;19.33;;;8.07;;
37517;SDS011;23366;52.498;13.446;2023-03-03T05:06:04;16.05;;;6.43;;
37517;SDS011;23366;52.498;13.446;2023-03-03T05:08:30;22.50;;;9.10;;
37517;SDS011;23366;52.498;13.446;2023-03-03T05:10:56;20.48;;;9.05;;
37517;SDS011;23366;52.498;13.446;2023-03-03T05:13:23;17.10;;;7.63;;
37517;SDS011;23366;52.498;13.446;2023-03-03T05:15:51;24.48;;;10.63;;
37517;SDS011;23366;52.498;13.446;2023-03-03T05:18:19;24.67;;;10.75;;
37517;SDS011;23366;52.498;13.446;2023-03-03T05:20:46;24.20;;;10.68;;
37517;SDS011;23366;52.498;13.446;2023-03-03T05:23:13;25.88;;;9.55;;
37517;SDS011;23366;52.498;13.446;2023-03-03T05:25:39;21.25;;;8.60;;
37517;SDS011;23366;52.498;13.446;2023-03-03T05:28:06;28.60;;;10.52;;
37517;SDS011;23366;52.498;13.446;2023-03-03T05:30:31;27.25;;;11.98;;
37517;SDS011;23366;52.498;13.446;2023-03-03T05:32:57;31.17;;;12.88;;
37517;SDS011;23366;52.498;13.446;2023-03-03T05:35:23;31.40;;;12.15;;
37517;SDS011;23366;52.498;13.446;2023-03-03T05:37:49;30.27;;;11.07;;
37517;SDS011;23366;52.498;13.446;2023-03-03T05:40:16;28.15;;;10.38;;
37517;SDS011;23366;52.498;13.446;2023-03-03T05:42:43;34.35;;;12.40;;
37517;SDS011;23366;52.498;13.446;2023-03-03T05:45:09;31.65;;;11.85;;
37517;SDS011;23366;52.498;13.446;2023-03-03T05:47:35;31.65;;;12.13;;
37517;SDS011;23366;52.498;13.446;2023-03-03T05:50:00;29.90;;;12.55;;
37517;SDS011;23366;52.498;13.446;2023-03-03T05:52:26;32.67;;;13.35;;
37517;SDS011;23366;52.498;13.446;2023-03-03T05:54:52;36.80;;;16.38;;
37517;SDS011;23366;52.498;13.446;2023-03-03T05:57:17;26.00;;;12.57;;
37517;SDS011;23366;52.498;13.446;2023-03-03T05:59:43;31.15;;;14.18;;
37517;SDS011;23366;52.498;13.446;2023-03-03T06:02:08;25.17;;;11.05;;
37517;SDS011;23366;52.498;13.446;2023-03-03T06:04:35;28.73;;;11.38;;
37517;SDS011;23366;52.498;13.446;2023-03-03T06:07:00;23.65;;;12.13;;
37517;SDS011;23366;52.498;13.446;2023-03-03T06:09:26;33.10;;;11.93;;
37517;SDS011;23366;52.498;13.446;2023-03-03T06:11:52;25.30;;;12.15;;
37517;SDS011;23366;52.498;13.446;2023-03-03T06:14:21;31.38;;;12.50;;
37517;SDS011;23366;52.498;13.446;2023-03-03T06:16:47;27.10;;;11.30;;
37517;SDS011;23366;52.498;13.446;2023-03-03T06:19:13;28.65;;;11.93;;
37517;SDS011;23366;52.498;13.446;2023-03-03T06:21:39;30.42;;;11.70;;
37517;SDS011;23366;52.498;13.446;2023-03-03T06:24:05;29.77;;;14.50;;
37517;SDS011;23366;52.498;13.446;2023-03-03T06:26:31;26.45;;;12.00;;
37517;SDS011;23366;52.498;13.446;2023-03-03T06:28:57;31.35;;;11.95;;
37517;SDS011;23366;52.498;13.446;2023-03-03T06:31:23;26.70;;;12.40;;
37517;SDS011;23366;52.498;13.446;2023-03-03T06:33:48;30.63;;;11.32;;
37517;SDS011;23366;52.498;13.446;2023-03-03T06:36:15;24.17;;;11.07;;
37517;SDS011;23366;52.498;13.446;2023-03-03T06:38:43;25.83;;;13.27;;
37517;SDS011;23366;52.498;13.446;2023-03-03T06:41:09;26.65;;;10.57;;
37517;SDS011;23366;52.498;13.446;2023-03-03T06:43:35;19.77;;;10.50;;
37517;SDS011;23366;52.498;13.446;2023-03-03T06:46:01;23.90;;;9.55;;
37517;SDS011;23366;52.498;13.446;2023-03-03T06:48:28;28.35;;;10.77;;
37517;SDS011;23366;52.498;13.446;2023-03-03T06:50:54;29.13;;;12.13;;
37517;SDS011;23366;52.498;13.446;2023-03-03T06:53:24;26.38;;;10.95;;
37517;SDS011;23366;52.498;13.446;2023-03-03T06:55:50;28.33;;;11.30;;
37517;SDS011;23366;52.498;13.446;2023-03-03T06:58:17;27.05;;;12.63;;
37517;SDS011;23366;52.498;13.446;2023-03-03T07:00:45;21.55;;;9.95;;
37517;SDS011;23366;52.498;13.446;2023-03-03T07:06:00;24.83;;;10.30;;
37517;SDS011;23366;52.498;13.446;2023-03-03T07:08:29;27.27;;;11.30;;
37517;SDS011;23366;52.498;13.446;2023-03-03T07:10:55;27.88;;;11.85;;
37517;SDS011;23366;52.498;13.446;2023-03-03T07:13:26;25.00;;;11.02;;
37517;SDS011;23366;52.498;13.446;2023-03-03T07:15:54;28.88;;;11.60;;
37517;SDS011;23366;52.498;13.446;2023-03-03T07:20:51;29.58;;;10.43;;
37517;SDS011;23366;52.498;13.446;2023-03-03T07:23:19;29.10;;;11.90;;
37517;SDS011;23366;52.498;13.446;2023-03-03T07:25:48;29.33;;;11.83;;
37517;SDS011;23366;52.498;13.446;2023-03-03T07:28:18;24.40;;;12.50;;
37517;SDS011;23366;52.498;13.446;2023-03-03T07:30:53;26.67;;;10.60;;
37517;SDS011;23366;52.498;13.446;2023-03-03T07:33:24;32.67;;;11.35;;
37517;SDS011;23366;52.498;13.446;2023-03-03T07:35:53;27.98;;;11.18;;
37517;SDS011;23366;52.498;13.446;2023-03-03T07:40:57;25.40;;;11.10;;
37517;SDS011;23366;52.498;13.446;2023-03-03T07:46:00;39.42;;;12.95;;
37517;SDS011;23366;52.498;13.446;2023-03-03T07:48:30;37.15;;;13.02;;
37517;SDS011;23366;52.498;13.446;2023-03-03T07:51:02;31.20;;;14.60;;
37517;SDS011;23366;52.498;13.446;2023-03-03T07:53:31;38.30;;;12.18;;
37517;SDS011;23366;52.498;13.446;2023-03-03T07:56:01;40.55;;;14.75;;
37517;SDS011;23366;52.498;13.446;2023-03-03T07:58:34;30.08;;;13.05;;
37517;SDS011;23366;52.498;13.446;2023-03-03T08:04:08;26.10;;;11.90;;
37517;SDS011;23366;52.498;13.446;2023-03-03T08:06:46;31.25;;;10.95;;
37517;SDS011;23366;52.498;13.446;2023-03-03T08:11:47;36.50;;;13.90;;
37517;SDS011;23366;52.498;13.446;2023-03-03T08:14:32;31.90;;;14.07;;
37517;SDS011;23366;52.498;13.446;2023-03-03T08:16:59;29.05;;;12.65;;
37517;SDS011;23366;52.498;13.446;2023-03-03T08:19:25;42.88;;;13.82;;
37517;SDS011;23366;52.498;13.446;2023-03-03T08:21:53;35.00;;;13.63;;
37517;SDS011;23366;52.498;13.446;2023-03-03T08:24:27;24.73;;;10.07;;
37517;SDS011;23366;52.498;13.446;2023-03-03T08:26:52;34.47;;;13.25;;
37517;SDS011;23366;52.498;13.446;2023-03-03T08:29:18;33.53;;;15.05;;
37517;SDS011;23366;52.498;13.446;2023-03-03T08:31:43;38.60;;;15.13;;
37517;SDS011;23366;52.498;13.446;2023-03-03T08:34:09;36.67;;;14.30;;
37517;SDS011;23366;52.498;13.446;2023-03-03T08:36:34;41.22;;;13.45;;
37517;SDS011;23366;52.498;13.446;2023-03-03T08:39:00;44.22;;;14.25;;
37517;SDS011;23366;52.498;13.446;2023-03-03T08:41:26;34.60;;;14.55;;
37517;SDS011;23366;52.498;13.446;2023-03-03T08:43:51;33.88;;;13.68;;
37517;SDS011;23366;52.498;13.446;2023-03-03T08:46:17;33.28;;;14.07;;
37517;SDS011;23366;52.498;13.446;2023-03-03T08:48:43;24.70;;;12.20;;
37517;SDS011;23366;52.498;13.446;2023-03-03T08:51:08;34.72;;;12.13;;
37517;SDS011;23366;52.498;13.446;2023-03-03T08:53:34;27.30;;;10.13;;
37517;SDS011;23366;52.498;13.446;2023-03-03T08:56:02;17.60;;;9.73;;
37517;SDS011;23366;52.498;13.446;2023-03-03T08:58:29;20.05;;;9.70;;
37517;SDS011;23366;52.498;13.446;2023-03-03T09:00:54;18.65;;;8.02;;
37517;SDS011;23366;52.498;13.446;2023-03-03T09:03:20;26.25;;;9.70;;
37517;SDS011;23366;52.498;13.446;2023-03-03T09:05:46;28.63;;;11.68;;
37517;SDS011;23366;52.498;13.446;2023-03-03T09:08:12;30.55;;;12.82;;
37517;SDS011;23366;52.498;13.446;2023-03-03T09:10:38;25.48;;;11.38;;
37517;SDS011;23366;52.498;13.446;2023-03-03T09:13:06;33.67;;;12.90;;
37517;SDS011;23366;52.498;13.446;2023-03-03T09:15:37;22.98;;;10.43;;
37517;SDS011;23366;52.498;13.446;2023-03-03T09:18:25;25.77;;;12.45;;
37517;SDS011;23366;52.498;13.446;2023-03-03T09:20:59;23.30;;;10.77;;
37517;SDS011;23366;52.498;13.446;2023-03-03T09:23:28;26.27;;;11.18;;
37517;SDS011;23366;52.498;13.446;2023-03-03T09:26:40;27.80;;;10.50;;
37517;SDS011;23366;52.498;13.446;2023-03-03T09:28:57;23.85;;;11.80;;
37517;SDS011;23366;52.498;13.446;2023-03-03T09:31:35;27.75;;;13.18;;
37517;SDS011;23366;52.498;13.446;2023-03-03T09:36:48;27.65;;;13.48;;
37517;SDS011;23366;52.498;13.446;2023-03-03T09:39:19;31.58;;;15.35;;
37517;SDS011;23366;52.498;13.446;2023-03-03T09:44:46;28.73;;;13.50;;
37517;SDS011;23366;52.498;13.446;2023-03-03T09:53:14;25.88;;;12.02;;
37517;SDS011;23366;52.498;13.446;2023-03-03T09:56:11;26.25;;;11.88;;
37517;SDS011;23366;52.498;13.446;2023-03-03T09:59:11;22.52;;;9.70;;
37517;SDS011;23366;52.498;13.446;2023-03-03T10:07:23;24.08;;;12.85;;
37517;SDS011;23366;52.498;13.446;2023-03-03T10:12:54;29.13;;;12.60;;
37517;SDS011;23366;52.498;13.446;2023-03-03T10:21:00;25.52;;;13.43;;
37517;SDS011;23366;52.498;13.446;2023-03-03T10:32:25;26.27;;;10.75;;
37517;SDS011;23366;52.498;13.446;2023-03-03T10:35:22;22.73;;;11.98;;
37517;SDS011;23366;52.498;13.446;2023-03-03T10:38:14;23.67;;;10.50;;
37517;SDS011;23366;52.498;13.446;2023-03-03T10:43:56;19.10;;;10.23;;
37517;SDS011;23366;52.498;13.446;2023-03-03T10:49:24;20.33;;;9.98;;
37517;SDS011;23366;52.498;13.446;2023-03-03T10:57:42;21.88;;;10.18;;
37517;SDS011;23366;52.498;13.446;2023-03-03T11:03:32;15.70;;;7.57;;
37517;SDS011;23366;52.498;13.446;2023-03-03T11:06:00;19.55;;;9.90;;
37517;SDS011;23366;52.498;13.446;2023-03-03T11:11:20;20.48;;;8.60;;
37517;SDS011;23366;52.498;13.446;2023-03-03T11:25:20;22.38;;;10.52;;
37517;SDS011;23366;52.498;13.446;2023-03-03T11:33:21;29.52;;;12.68;;
37517;SDS011;23366;52.498;13.446;2023-03-03T11:36:05;29.25;;;11.43;;
37517;SDS011;23366;52.498;13.446;2023-03-03T11:38:53;27.88;;;12.60;;
37517;SDS011;23366;52.498;13.446;2023-03-03T11:41:41;27.73;;;12.52;;
37517;SDS011;23366;52.498;13.446;2023-03-03T11:44:39;30.83;;;14.05;;
37517;SDS011;23366;52.498;13.446;2023-03-03T11:49:49;32.38;;;14.63;;
37517;SDS011;23366;52.498;13.446;2023-03-03T11:55:30;34.97;;;14.40;;
37517;SDS011;23366;52.498;13.446;2023-03-03T11:58:12;33.00;;;14.30;;
37517;SDS011;23366;52.498;13.446;2023-03-03T12:03:20;29.98;;;13.38;;
37517;SDS011;23366;52.498;13.446;2023-03-03T12:11:17;29.30;;;13.33;;
37517;SDS011;23366;52.498;13.446;2023-03-03T12:24:24;29.00;;;12.70;;
37517;SDS011;23366;52.498;13.446;2023-03-03T12:27:23;29.75;;;12.93;;
37517;SDS011;23366;52.498;13.446;2023-03-03T12:37:58;19.13;;;8.65;;
37517;SDS011;23366;52.498;13.446;2023-03-03T12:43:40;17.95;;;9.13;;
37517;SDS011;23366;52.498;13.446;2023-03-03T12:48:46;20.23;;;10.13;;
37517;SDS011;23366;52.498;13.446;2023-03-03T13:05:54;21.92;;;10.55;;
37517;SDS011;23366;52.498;13.446;2023-03-03T13:19:27;21.45;;;10.35;;
37517;SDS011;23366;52.498;13.446;2023-03-03T13:22:04;22.38;;;11.32;;
37517;SDS011;23366;52.498;13.446;2023-03-03T13:24:39;19.88;;;9.70;;
37517;SDS011;23366;52.498;13.446;2023-03-03T13:27:19;23.50;;;9.27;;
37517;SDS011;23366;52.498;13.446;2023-03-03T13:30:00;19.08;;;9.75;;
37517;SDS011;23366;52.498;13.446;2023-03-03T13:32:37;18.50;;;8.00;;
37517;SDS011;23366;52.498;13.446;2023-03-03T13:35:53;27.50;;;11.52;;
37517;SDS011;23366;52.498;13.446;2023-03-03T13:45:06;30.60;;;13.48;;
37517;SDS011;23366;52.498;13.446;2023-03-03T13:51:31;23.65;;;11.70;;
37517;SDS011;23366;52.498;13.446;2023-03-03T14:03:24;20.75;;;12.00;;
37517;SDS011;23366;52.498;13.446;2023-03-03T14:06:08;27.27;;;10.57;;
37517;SDS011;23366;52.498;13.446;2023-03-03T14:25:20;24.63;;;12.55;;
37517;SDS011;23366;52.498;13.446;2023-03-03T14:38:46;21.90;;;8.80;;
37517;SDS011;23366;52.498;13.446;2023-03-03T14:43:36;18.92;;;8.90;;
37517;SDS011;23366;52.498;13.446;2023-03-03T14:48:48;26.70;;;9.05;;
37517;SDS011;23366;52.498;13.446;2023-03-03T14:51:25;17.55;;;7.80;;
37517;SDS011;23366;52.498;13.446;2023-03-03T14:53:57;18.08;;;7.93;;
37517;SDS011;23366;52.498;13.446;2023-03-03T14:56:24;14.15;;;8.23;;
37517;SDS011;23366;52.498;13.446;2023-03-03T14:58:53;22.05;;;9.10;;
37517;SDS011;23366;52.498;13.446;2023-03-03T15:01:36;17.42;;;7.97;;
37517;SDS011;23366;52.498;13.446;2023-03-03T15:04:03;18.90;;;9.00;;
37517;SDS011;23366;52.498;13.446;2023-03-03T15:06:40;18.80;;;8.88;;
37517;SDS011;23366;52.498;13.446;2023-03-03T15:12:23;22.77;;;10.40;;
37517;SDS011;23366;52.498;13.446;2023-03-03T15:14:50;17.48;;;8.38;;
37517;SDS011;23366;52.498;13.446;2023-03-03T15:17:19;16.00;;;7.95;;
37517;SDS011;23366;52.498;13.446;2023-03-03T15:22:50;13.65;;;6.68;;
37517;SDS011;23366;52.498;13.446;2023-03-03T15:37:23;14.50;;;6.07;;
37517;SDS011;23366;52.498;13.446;2023-03-03T15:42:32;12.55;;;6.25;;
37517;SDS011;23366;52.498;13.446;2023-03-03T15:47:47;13.05;;;6.57;;
37517;SDS011;23366;52.498;13.446;2023-03-03T15:53:22;18.83;;;8.55;;
37517;SDS011;23366;52.498;13.446;2023-03-03T15:58:43;15.30;;;7.93;;
37517;SDS011;23366;52.498;13.446;2023-03-03T16:01:22;14.18;;;6.82;;
37517;SDS011;23366;52.498;13.446;2023-03-03T16:03:58;15.40;;;6.57;;
37517;SDS011;23366;52.498;13.446;2023-03-03T16:06:48;14.80;;;5.63;;
37517;SDS011;23366;52.498;13.446;2023-03-03T16:17:58;13.23;;;6.07;;
37517;SDS011;23366;52.498;13.446;2023-03-03T16:20:51;15.65;;;6.05;;
37517;SDS011;23366;52.498;13.446;2023-03-03T16:26:35;16.42;;;7.90;;
37517;SDS011;23366;52.498;13.446;2023-03-03T16:31:50;17.30;;;7.75;;
37517;SDS011;23366;52.498;13.446;2023-03-03T16:34:46;17.80;;;7.68;;
37517;SDS011;23366;52.498;13.446;2023-03-03T16:37:30;15.15;;;6.78;;
37517;SDS011;23366;52.498;13.446;2023-03-03T16:40:08;17.65;;;7.72;;
37517;SDS011;23366;52.498;13.446;2023-03-03T16:42:48;18.60;;;8.10;;
37517;SDS011;23366;52.498;13.446;2023-03-03T16:45:34;18.85;;;9.02;;
37517;SDS011;23366;52.498;13.446;2023-03-03T16:48:25;18.35;;;9.00;;
37517;SDS011;23366;52.498;13.446;2023-03-03T16:56:44;21.15;;;8.93;;
37517;SDS011;23366;52.498;13.446;2023-03-03T17:05:23;12.15;;;7.15;;
37517;SDS011;23366;52.498;13.446;2023-03-03T17:08:21;17.60;;;7.82;;
37517;SDS011;23366;52.498;13.446;2023-03-03T17:13:57;23.73;;;8.65;;
37517;SDS011;23366;52.498;13.446;2023-03-03T17:16:54;20.40;;;8.40;;
37517;SDS011;23366;52.498;13.446;2023-03-03T17:30:19;20.88;;;9.75;;
37517;SDS011;23366;52.498;13.446;2023-03-03T17:43:48;23.30;;;11.88;;
37517;SDS011;23366;52.498;13.446;2023-03-03T17:49:13;21.23;;;9.35;;
37517;SDS011;23366;52.498;13.446;2023-03-03T18:02:40;17.08;;;9.48;;
37517;SDS011;23366;52.498;13.446;2023-03-03T18:05:40;20.65;;;10.00;;
37517;SDS011;23366;52.498;13.446;2023-03-03T18:08:21;18.77;;;9.35;;
37517;SDS011;23366;52.498;13.446;2023-03-03T18:11:18;16.80;;;8.65;;
37517;SDS011;23366;52.498;13.446;2023-03-03T18:17:14;23.17;;;9.98;;
37517;SDS011;23366;52.498;13.446;2023-03-03T18:22:32;21.52;;;9.55;;
37517;SDS011;23366;52.498;13.446;2023-03-03T18:25:10;19.88;;;9.70;;
37517;SDS011;23366;52.498;13.446;2023-03-03T18:27:40;25.17;;;10.95;;
37517;SDS011;23366;52.498;13.446;2023-03-03T18:37:45;25.10;;;10.82;;
37517;SDS011;23366;52.498;13.446;2023-03-03T18:42:42;19.77;;;9.65;;
37517;SDS011;23366;52.498;13.446;2023-03-03T18:50:41;27.73;;;11.45;;
37517;SDS011;23366;52.498;13.446;2023-03-03T18:53:18;22.75;;;9.98;;
37517;SDS011;23366;52.498;13.446;2023-03-03T18:56:02;20.08;;;11.05;;
37517;SDS011;23366;52.498;13.446;2023-03-03T18:58:37;17.42;;;9.43;;
37517;SDS011;23366;52.498;13.446;2023-03-03T19:09:11;19.70;;;10.70;;
37517;SDS011;23366;52.498;13.446;2023-03-03T19:12:02;23.40;;;11.20;;
37517;SDS011;23366;52.498;13.446;2023-03-03T19:14:33;22.92;;;11.18;;
37517;SDS011;23366;52.498;13.446;2023-03-03T19:19:58;20.95;;;9.73;;
37517;SDS011;23366;52.498;13.446;2023-03-03T19:22:27;21.20;;;9.25;;
37517;SDS011;23366;52.498;13.446;2023-03-03T19:25:01;17.88;;;7.45;;
37517;SDS011;23366;52.498;13.446;2023-03-03T19:27:55;25.23;;;9.48;;
37517;SDS011;23366;52.498;13.446;2023-03-03T19:38:43;17.50;;;7.85;;
37517;SDS011;23366;52.498;13.446;2023-03-03T19:41:41;17.60;;;8.48;;
37517;SDS011;23366;52.498;13.446;2023-03-03T19:47:11;25.77;;;10.32;;
37517;SDS011;23366;52.498;13.446;2023-03-03T19:52:35;22.30;;;9.18;;
37517;SDS011;23366;52.498;13.446;2023-03-03T19:55:11;20.20;;;9.73;;
37517;SDS011;23366;52.498;13.446;2023-03-03T20:03:01;18.92;;;9.95;;
37517;SDS011;23366;52.498;13.446;2023-03-03T20:05:59;23.10;;;7.75;;
37517;SDS011;23366;52.498;13.446;2023-03-03T20:08:40;19.92;;;9.82;;
37517;SDS011;23366;52.498;13.446;2023-03-03T20:11:19;25.17;;;8.35;;
37517;SDS011;23366;52.498;13.446;2023-03-03T20:14:18;19.45;;;8.85;;
37517;SDS011;23366;52.498;13.446;2023-03-03T20:17:12;18.50;;;7.80;;
37517;SDS011;23366;52.498;13.446;2023-03-03T20:19:55;21.92;;;9.27;;
37517;SDS011;23366;52.498;13.446;2023-03-03T20:25:24;22.48;;;8.63;;
37517;SDS011;23366;52.498;13.446;2023-03-03T20:44:53;16.30;;;7.68;;
37517;SDS011;23366;52.498;13.446;2023-03-03T20:47:45;14.55;;;7.65;;
37517;SDS011;23366;52.498;13.446;2023-03-03T21:01:52;21.00;;;7.97;;
37517;SDS011;23366;52.498;13.446;2023-03-03T21:04:28;18.88;;;7.82;;
37517;SDS011;23366;52.498;13.446;2023-03-03T21:06:55;14.73;;;6.43;;
37517;SDS011;23366;52.498;13.446;2023-03-03T21:09:26;18.98;;;7.40;;
37517;SDS011;23366;52.498;13.446;2023-03-03T21:11:52;17.30;;;8.27;;
37517;SDS011;23366;52.498;13.446;2023-03-03T21:14:19;14.75;;;8.10;;
37517;SDS011;23366;52.498;13.446;2023-03-03T21:16:50;19.10;;;8.82;;
37517;SDS011;23366;52.498;13.446;2023-03-03T21:19:31;17.13;;;8.07;;
37517;SDS011;23366;52.498;13.446;2023-03-03T21:21:59;18.23;;;7.55;;
37517;SDS011;23366;52.498;13.446;2023-03-03T21:27:30;17.38;;;8.18;;
37517;SDS011;23366;52.498;13.446;2023-03-03T21:30:15;13.60;;;6.68;;
37517;SDS011;23366;52.498;13.446;2023-03-03T21:32:43;17.90;;;7.93;;
37517;SDS011;23366;52.498;13.446;2023-03-03T21:35:10;13.70;;;6.82;;
37517;SDS011;23366;52.498;13.446;2023-03-03T21:37:42;15.57;;;7.13;;